Flight Track Log - Related Links

Times and Time Zones

All times are in EDT time to prevent confusion due to time zone crossing. See the DAL6206 flight status page for this flight to view local times or setup timezone preferences in your user account.

Time Position Orientation Groundspeed Altitude Reporting Facility
EDT Latitude Longitude Course Direction KTS MPH feet Rate Location/Type
Mon 08:46:17 PM 42.2017 -83.3583 214° Southwest 154 177 1,200  Level Cleveland Center
Mon 08:46:47 PM 42.1844 -83.3742 214° Southwest 177 204 2,100 1,737 Climbing Cleveland Center
Mon 08:47:33 PM 42.1442 -83.4089 213° Southwest 224 258 3,400 2,264 Climbing Cleveland Center
Mon 08:48:33 PM 42.0867 -83.4511 209° Southwest 278 320 6,100 2,450 Climbing Cleveland Center
Mon 08:49:33 PM 42.0292 -83.4961 210° Southwest 284 327 8,300 2,550 Climbing Cleveland Center
Mon 08:50:33 PM 41.9611 -83.5544 213° Southwest 284 327 11,200 2,700 Climbing Cleveland Center
Mon 08:51:33 PM 41.8842 -83.6206 213° Southwest 289 333 13,700 2,250 Climbing Cleveland Center
Mon 08:52:33 PM 41.8075 -83.6839 212° Southwest 307 353 15,700 1,900 Climbing Cleveland Center
Mon 08:53:33 PM 41.7264 -83.7550 213° Southwest 333 383 17,500 1,700 Climbing Cleveland Center
Mon 08:54:33 PM 41.6411 -83.8231 211° Southwest 353 406 19,100 1,600 Climbing Cleveland Center
Mon 08:55:33 PM 41.5472 -83.8989 211° Southwest 375 432 20,700 1,500 Climbing Cleveland Center
Mon 08:56:33 PM 41.4533 -83.9689 209° Southwest 385 443 22,100 1,400 Climbing Cleveland Center
Mon 08:57:33 PM 41.3572 -84.0469 211° Southwest 401 461 23,500 1,400 Climbing Cleveland Center
Mon 08:58:33 PM 41.2714 -84.1197 213° Southwest 407 468 24,900 1,231 Climbing Cleveland Center
Mon 08:58:51 PM 41.2522 -84.1397 218° Southwest 415 478 25,100 1,275 Climbing Chicago Center
Mon 08:59:53 PM 41.2050 -84.3036 249° West 401 461 26,600 1,210 Climbing Chicago Center
Mon 09:00:55 PM 41.1706 -84.4475 252° West 408 470 27,600 968 Climbing Chicago Center
Mon 09:01:57 PM 41.1331 -84.5933 251° West 416 479 28,600 968 Climbing Chicago Center
Mon 09:02:59 PM 41.0947 -84.7397 251° West 418 481 29,600 968 Climbing Chicago Center
Mon 09:04:01 PM 41.0569 -84.8883 251° West 422 486 30,600 968 Climbing Chicago Center
Mon 09:05:03 PM 41.0194 -85.0347 251° West 421 484 31,600 968 Climbing Chicago Center
Mon 09:06:05 PM 40.9808 -85.1797 251° West 417 480 32,600 1,065 Climbing Chicago Center
Mon 09:07:07 PM 40.9350 -85.3522 251° West 414 476 33,800 677 Climbing Chicago Center
Mon 09:08:09 PM 40.8969 -85.4961 251° West 415 478 34,000 97 Climbing Chicago Center
Mon 09:09:11 PM 40.8578 -85.6433 251° West 422 486 34,000  Level Chicago Center
Mon 09:10:12 PM 40.8183 -85.7919 251° West 428 493 34,000  Level Chicago Center
Mon 09:11:14 PM 40.7783 -85.9400 250° West 428 493 34,000  Level Chicago Center
Mon 09:12:16 PM 40.7381 -86.0883 250° West 430 495 34,000  Level Chicago Center
Mon 09:13:18 PM 40.6992 -86.2381 251° West 433 498 34,000  Level Chicago Center
Mon 09:14:20 PM 40.6569 -86.3872 250° West 420 483 34,000  Level Chicago Center
Mon 09:15:22 PM 40.6128 -86.5522 251° West 412 474 34,000  Level Chicago Center
Mon 09:16:24 PM 40.5733 -86.6925 250° West 409 471 34,000  Level Chicago Center
Mon 09:17:26 PM 40.5336 -86.8347 250° West 411 473 34,000  Level Chicago Center
Mon 09:18:27 PM 40.4939 -86.9756 250° West 411 473 34,000  Level Chicago Center
Mon 09:19:29 PM 40.4561 -87.1111 250° West 412 474 34,000  Level Chicago Center
Mon 09:20:31 PM 40.4117 -87.2622 249° West 418 481 34,000  Level Chicago Center
Mon 09:21:33 PM 40.3650 -87.4278 250° West 414 476 34,000  Level Chicago Center
Mon 09:22:35 PM 40.3269 -87.5622 250° West 409 471 34,000  Level Chicago Center
Mon 09:23:20 PM 40.2975 -87.6622 249° West 414 476 34,000 -226 Level Indianapolis Center
Mon 09:24:21 PM 40.2347 -87.7900 237° Southwest 419 482 33,600 -771 Descending Indianapolis Center
Mon 09:25:40 PM 40.1164 -87.9375 224° Southwest 440 506 32,200 -1,021 Descending Chicago Center
Mon 09:26:42 PM 40.0244 -88.0500 223° Southwest 450 518 31,200 -1,024 Descending Chicago Center
Mon 09:27:43 PM 39.9225 -88.1733 223° Southwest 453 521 30,100 -981 Descending Chicago Center
Mon 09:28:26 PM 39.8681 -88.2378 222° Southwest 452 520 29,500 -923 Descending Kansas City Center
Mon 09:29:27 PM 39.7750 -88.3497 223° Southwest 453 521 28,500 -976 Descending Kansas City Center
Mon 09:30:29 PM 39.6847 -88.4597 223° Southwest 450 518 27,500 -1,258 Descending Kansas City Center
Mon 09:31:31 PM 39.5797 -88.5853 223° Southwest 436 502 25,900 -1,512 Descending Kansas City Center
Mon 09:32:32 PM 39.4936 -88.6883 223° Southwest 426 490 24,400 -1,415 Descending Kansas City Center
Mon 09:33:34 PM 39.4089 -88.7903 223° Southwest 418 481 23,000 -1,317 Descending Kansas City Center
Mon 09:34:35 PM 39.3311 -88.8825 223° Southwest 412 474 21,700 -1,268 Descending Kansas City Center
Mon 09:35:37 PM 39.2475 -88.9811 222° Southwest 409 471 20,400 -1,317 Descending Kansas City Center
Mon 09:36:38 PM 39.1483 -89.0953 222° Southwest 412 474 19,000 -1,415 Descending Kansas City Center
Mon 09:37:40 PM 39.0811 -89.2225 236° Southwest 409 471 17,500 -1,403 Descending Kansas City Center
Mon 09:38:42 PM 39.0489 -89.3592 253° West 402 463 16,100 -1,171 Descending Kansas City Center
Mon 09:39:43 PM 39.0189 -89.4942 254° West 395 455 15,100 -537 Descending Kansas City Center
Mon 09:40:45 PM 38.9847 -89.6342 253° West 385 443 15,000 -683 Descending Kansas City Center
Mon 09:41:46 PM 38.9461 -89.7536 247° West 367 422 13,700 -1,317 Descending Kansas City Center
Mon 09:42:48 PM 38.9147 -89.8522 248° West 345 397 12,300 -1,415 Descending Kansas City Center
Mon 09:43:49 PM 38.8833 -89.9525 248° West 315 362 10,800 -1,561 Descending Kansas City Center
Mon 09:44:51 PM 38.8489 -90.0628 248° West 291 335 9,100 -878 Descending Kansas City Center
Mon 09:45:52 PM 38.8203 -90.1525 248° West 281 323 9,000 -98 Descending Kansas City Center
Mon 09:46:54 PM 38.8172 -90.2444 268° West 275 316 8,900 -780 Descending Kansas City Center
Mon 09:47:55 PM 38.8425 -90.3306 291° West 264 304 7,400 -1,082 Descending Kansas City Center
Mon 09:48:56 PM 38.8650 -90.4097 290° West 247 284 6,700 -1,073 Descending Kansas City Center
Mon 09:49:58 PM 38.8869 -90.4783 292° West 217 250 5,200 -1,610 Descending Kansas City Center
Mon 09:50:59 PM 38.8500 -90.5225 223° Southwest 190 219 3,400 -1,366 Descending Kansas City Center
Mon 09:52:01 PM 38.8103 -90.5011 157° South 173 199 2,400 -878 Descending Kansas City Center
Mon 09:53:02 PM 38.7875 -90.4644 129° Southeast 144 166 1,600 -683 Descending Kansas City Center
Mon 09:54:04 PM 38.7683 -90.4269 123° Southeast 130 150 1,000 -488 Descending Kansas City Center
Mon 09:55:05 PM 38.7525 -90.3944 122° Southeast 127 146 600 -393 Descending Kansas City Center

Login

Don't have an account? Register now (free) for customized features, flight alerts, and more!